createdAt,value
2019-01-15T00:02:14.989Z,101226.31
2019-01-15T00:04:46.371Z,101230.67
2019-01-15T00:07:17.580Z,101217.73
2019-01-15T00:09:48.825Z,101210.37
2019-01-15T00:12:20.051Z,101215.92
2019-01-15T00:14:51.421Z,101218.90
2019-01-15T00:17:22.661Z,101228.03
2019-01-15T00:19:54.080Z,101238.02
2019-01-15T00:22:25.464Z,101227.66
2019-01-15T00:24:56.763Z,101238.94
2019-01-15T00:27:28.106Z,101238.47
2019-01-15T00:29:59.424Z,101231.97
2019-01-15T00:32:30.691Z,101222.04
2019-01-15T00:35:02.006Z,101223.32
2019-01-15T00:37:33.403Z,101220.74
2019-01-15T00:40:06.098Z,101222.86
2019-01-15T00:42:37.381Z,101217.20
2019-01-15T00:45:09.515Z,101222.40
2019-01-15T00:47:41.039Z,101216.43
2019-01-15T00:50:14.939Z,101224.18
2019-01-15T00:52:46.213Z,101226.76
2019-01-15T00:55:17.471Z,101228.47
2019-01-15T00:57:48.766Z,101225.44
2019-01-15T01:00:22.915Z,101222.41
2019-01-15T01:02:54.494Z,101221.89
2019-01-15T01:05:26.166Z,101211.44
2019-01-15T01:07:57.372Z,101210.56
2019-01-15T01:10:28.771Z,101206.64
2019-01-15T01:13:00.059Z,101210.55
2019-01-15T01:15:31.378Z,101213.97
2019-01-15T01:18:02.667Z,101215.19
2019-01-15T01:20:34.378Z,101219.02
2019-01-15T01:23:05.897Z,101215.53
2019-01-15T01:25:37.203Z,78569.39
2019-01-15T01:28:08.420Z,78554.30
2019-01-15T01:30:39.843Z,78541.23
2019-01-15T01:33:11.172Z,78516.09
2019-01-15T01:35:42.486Z,78478.88
2019-01-15T01:38:13.808Z,78471.84
2019-01-15T01:40:45.069Z,78450.72
2019-01-15T01:43:16.339Z,78449.72
2019-01-15T01:45:47.555Z,78446.70
2019-01-15T01:48:18.787Z,78435.64
2019-01-15T01:50:49.951Z,78443.69
2019-01-15T01:53:21.123Z,78430.61
2019-01-15T01:55:52.451Z,78436.64
2019-01-15T01:58:23.699Z,78435.64
2019-01-15T02:00:55.048Z,78434.63
2019-01-15T02:03:26.334Z,78425.58
2019-01-15T02:05:57.539Z,78437.65
2019-01-15T02:08:28.824Z,78429.60
2019-01-15T02:11:00.030Z,78440.66
2019-01-15T02:13:31.244Z,78428.59
2019-01-15T02:16:02.507Z,78419.55
2019-01-15T02:18:33.763Z,78427.59
2019-01-15T02:21:05.141Z,78409.48
2019-01-15T02:23:36.374Z,78408.48
2019-01-15T02:26:10.719Z,78404.46
2019-01-15T02:28:41.960Z,78397.42
2019-01-15T02:31:13.374Z,78393.41
2019-01-15T02:33:48.512Z,78397.42
2019-01-15T02:36:20.561Z,78383.34
2019-01-15T02:38:51.829Z,78332.06
2019-01-15T02:41:23.177Z,78345.13
2019-01-15T02:43:54.427Z,78349.16
2019-01-15T02:46:25.690Z,78363.23
2019-01-15T02:48:56.942Z,78372.28
2019-01-15T02:51:28.241Z,78360.22
2019-01-15T02:53:59.516Z,78356.19
2019-01-15T02:56:30.815Z,78366.25
2019-01-15T02:59:02.144Z,78349.16
2019-01-15T03:01:33.388Z,78355.19
2019-01-15T03:04:05.099Z,78350.16
2019-01-15T03:06:36.373Z,78357.20
2019-01-15T03:09:10.310Z,78354.19
2019-01-15T03:11:41.569Z,78350.16
2019-01-15T03:14:12.774Z,78350.16
2019-01-15T03:16:44.058Z,78353.17
2019-01-15T03:19:15.342Z,78354.19
2019-01-15T03:21:46.609Z,78357.20
2019-01-15T03:24:17.866Z,78327.03
2019-01-15T03:26:49.177Z,78313.95
2019-01-15T03:29:20.501Z,78310.94
2019-01-15T03:31:51.749Z,78309.94
2019-01-15T03:34:23.015Z,78302.90
2019-01-15T03:36:54.272Z,78286.81
2019-01-15T03:39:25.541Z,78298.88
2019-01-15T03:41:59.771Z,78268.70
2019-01-15T03:44:31.081Z,78266.70
2019-01-15T03:47:02.380Z,78262.67
2019-01-15T03:49:33.598Z,78247.59
2019-01-15T03:52:08.207Z,78258.66
2019-01-15T03:54:39.456Z,78245.58
2019-01-15T03:57:10.946Z,78250.61
2019-01-15T03:59:42.177Z,78245.58
2019-01-15T04:02:15.322Z,78249.60
2019-01-15T04:04:49.645Z,78224.46
2019-01-15T04:07:21.188Z,78233.52
2019-01-15T04:09:52.552Z,78235.52
2019-01-15T04:12:23.917Z,78236.53
2019-01-15T04:14:58.237Z,78229.48
2019-01-15T04:17:29.925Z,78224.46
2019-01-15T04:20:01.212Z,78214.41
2019-01-15T04:22:32.700Z,78219.44
2019-01-15T04:25:05.167Z,78207.37
2019-01-15T04:27:40.927Z,78215.41
2019-01-15T04:30:19.247Z,78212.39
2019-01-15T04:32:50.403Z,78204.35
2019-01-15T04:35:21.629Z,78227.48
2019-01-15T04:37:52.887Z,78246.58
2019-01-15T04:40:24.961Z,78252.62
2019-01-15T04:42:56.129Z,78249.60
2019-01-15T04:45:27.710Z,78245.58
2019-01-15T04:47:58.963Z,78257.65
2019-01-15T04:50:30.261Z,78264.69
2019-01-15T04:53:04.537Z,78269.71
2019-01-15T04:55:36.695Z,78282.78
2019-01-15T04:58:07.884Z,78264.69
2019-01-15T05:00:39.196Z,78239.55
2019-01-15T05:03:12.435Z,78222.45
2019-01-15T05:05:43.684Z,78243.56
2019-01-15T05:08:15.002Z,78251.61
2019-01-15T05:10:46.234Z,78257.65
2019-01-15T05:13:17.452Z,78266.70
2019-01-15T05:15:48.664Z,78250.61
2019-01-15T05:18:19.840Z,78231.50
2019-01-15T05:20:51.179Z,78237.53
2019-01-15T05:23:22.474Z,78231.50
2019-01-15T05:25:53.740Z,78213.41
2019-01-15T05:28:24.975Z,78201.33
2019-01-15T05:30:56.160Z,78189.27
2019-01-15T05:33:27.439Z,78168.16
2019-01-15T05:35:58.605Z,78163.13
2019-01-15T05:38:29.897Z,78160.11
2019-01-15T05:41:01.124Z,78151.06
2019-01-15T05:43:35.814Z,78150.05
2019-01-15T05:46:05.626Z,78155.08
2019-01-15T05:48:37.970Z,78157.09
2019-01-15T05:51:27.976Z,78150.05
2019-01-15T05:53:59.315Z,78142.00
2019-01-15T05:56:30.588Z,78119.88
2019-01-15T05:59:01.938Z,78112.84
2019-01-15T06:01:33.398Z,78105.81
2019-01-15T06:04:05.055Z,78105.81
2019-01-15T06:06:36.366Z,78090.72
2019-01-15T06:09:11.785Z,78078.66
2019-01-15T06:11:42.155Z,78059.55
2019-01-15T06:14:13.418Z,78045.48
2019-01-15T06:16:44.679Z,78043.47
2019-01-15T06:19:15.891Z,78036.42
2019-01-15T06:21:47.247Z,78046.48
2019-01-15T06:24:18.514Z,78046.48
2019-01-15T06:26:49.773Z,78031.40
2019-01-15T06:29:21.054Z,78020.34
2019-01-15T06:31:52.341Z,78026.38
2019-01-15T06:34:23.619Z,78021.34
2019-01-15T06:36:54.894Z,78021.34
2019-01-15T06:39:26.078Z,78008.27
2019-01-15T06:41:57.480Z,78006.27
2019-01-15T06:44:28.789Z,78022.34
2019-01-15T06:46:59.994Z,78016.31
2019-01-15T06:49:31.297Z,78008.27
2019-01-15T06:52:02.586Z,78006.27
2019-01-15T06:54:33.871Z,78017.32
2019-01-15T06:57:05.287Z,78006.27
2019-01-15T06:59:36.531Z,78012.30
2019-01-15T07:02:07.999Z,78016.31
2019-01-15T07:04:43.830Z,78008.27
2019-01-15T07:07:12.155Z,78009.28
2019-01-15T07:09:43.423Z,77988.16
2019-01-15T07:12:14.660Z,77984.14
2019-01-15T07:14:46.286Z,77978.11
2019-01-15T07:17:17.853Z,77968.05
2019-01-15T07:19:49.037Z,77953.98
2019-01-15T07:22:20.493Z,77945.94
2019-01-15T07:24:51.775Z,77938.89
2019-01-15T07:27:23.122Z,77934.88
2019-01-15T07:29:54.309Z,77925.83
2019-01-15T07:32:25.755Z,77913.75
2019-01-15T07:34:57.087Z,77912.75
2019-01-15T07:37:28.439Z,77909.73
2019-01-15T07:39:59.703Z,77899.68
2019-01-15T07:42:30.977Z,77892.64
2019-01-15T07:45:02.349Z,77893.64
2019-01-15T07:47:33.640Z,77890.63
2019-01-15T07:50:06.092Z,77877.56
2019-01-15T07:52:37.377Z,77873.53
2019-01-15T07:55:10.197Z,77881.58
2019-01-15T07:57:41.646Z,77877.56
2019-01-15T08:00:18.141Z,77867.50
2019-01-15T08:02:50.380Z,77864.48
2019-01-15T08:05:23.466Z,77859.46
2019-01-15T08:07:54.912Z,77854.44
2019-01-15T08:10:26.168Z,77851.41
2019-01-15T08:12:57.605Z,77849.41
2019-01-15T08:15:29.199Z,77849.41
2019-01-15T08:18:00.645Z,77839.35
2019-01-15T08:20:32.967Z,77829.30
2019-01-15T08:23:04.260Z,77828.29
2019-01-15T08:25:35.563Z,77811.20
2019-01-15T08:28:06.779Z,77796.12
2019-01-15T08:30:39.101Z,77786.06
2019-01-15T08:33:10.554Z,77764.95
2019-01-15T08:35:41.918Z,77776.01
2019-01-15T08:38:13.230Z,77754.89
2019-01-15T08:40:44.473Z,77752.88
2019-01-15T08:43:26.562Z,77746.85
2019-01-15T08:45:57.826Z,77742.83
2019-01-15T08:48:31.182Z,77760.92
2019-01-15T08:51:03.002Z,77768.97
2019-01-15T08:53:34.760Z,77764.95
2019-01-15T08:56:06.623Z,77783.05
2019-01-15T08:58:37.870Z,77775.00
2019-01-15T09:01:09.085Z,77771.98
2019-01-15T09:03:40.239Z,77768.97
2019-01-15T09:06:11.446Z,77772.99
2019-01-15T09:08:42.702Z,77747.86
2019-01-15T09:11:13.970Z,77746.85
2019-01-15T09:13:45.199Z,77756.91
2019-01-15T09:16:16.458Z,77729.76
2019-01-15T09:18:47.766Z,77698.59
2019-01-15T09:21:19.097Z,77662.39
2019-01-15T09:23:50.353Z,77638.27
2019-01-15T09:26:21.564Z,77633.24
2019-01-15T09:28:52.901Z,77623.19
2019-01-15T09:31:24.126Z,77629.22
2019-01-15T09:33:55.362Z,77631.23
2019-01-15T09:36:26.528Z,77636.26
2019-01-15T09:38:57.764Z,77632.23
2019-01-15T09:41:29.019Z,77628.21
2019-01-15T09:44:00.219Z,77628.21
2019-01-15T09:46:31.639Z,77618.16
2019-01-15T09:49:02.902Z,77608.11
2019-01-15T09:51:34.272Z,77590.01
2019-01-15T09:54:05.752Z,77583.98
2019-01-15T09:56:37.051Z,77580.95
2019-01-15T09:59:08.306Z,77584.98
2019-01-15T10:01:39.741Z,77563.87
2019-01-15T10:04:11.035Z,77566.89
2019-01-15T10:06:42.327Z,77551.80
2019-01-15T10:09:13.702Z,77551.80
2019-01-15T10:11:45.113Z,77562.86
2019-01-15T10:14:16.637Z,77568.89
2019-01-15T10:16:48.108Z,77567.89
2019-01-15T10:19:19.560Z,77560.85
2019-01-15T10:21:51.121Z,77551.80
2019-01-15T10:24:22.413Z,77533.70
2019-01-15T10:26:55.183Z,77516.61
2019-01-15T10:29:26.989Z,77517.63
2019-01-15T10:32:57.489Z,77524.66
2019-01-15T10:36:01.695Z,77498.52
2019-01-15T10:38:34.446Z,77489.47
2019-01-15T10:41:06.068Z,77487.46
2019-01-15T10:43:37.736Z,77483.44
2019-01-15T10:46:09.184Z,77498.52
2019-01-15T10:48:40.614Z,77484.45
2019-01-15T10:51:11.926Z,77513.59
2019-01-15T10:53:43.455Z,77499.53
2019-01-15T10:56:14.754Z,77490.48
2019-01-15T10:58:45.980Z,77480.42
2019-01-15T11:01:17.228Z,77473.38
2019-01-15T11:03:48.520Z,77473.38
2019-01-15T11:06:19.818Z,77473.38
2019-01-15T11:08:51.270Z,77464.34
2019-01-15T11:11:22.660Z,77461.32
2019-01-15T11:13:54.462Z,77459.31
2019-01-15T11:16:25.735Z,77452.27
2019-01-15T11:18:56.955Z,77444.23
2019-01-15T11:21:36.605Z,77460.31
2019-01-15T11:24:15.324Z,77453.28
2019-01-15T11:26:47.221Z,77461.32
2019-01-15T11:29:18.504Z,77464.34
2019-01-15T11:31:50.516Z,77471.38
2019-01-15T11:34:22.118Z,77449.26
2019-01-15T11:36:53.378Z,77440.21
2019-01-15T11:39:24.695Z,77456.30
2019-01-15T11:41:55.937Z,77437.20
2019-01-15T11:44:27.142Z,77430.16
2019-01-15T11:46:58.403Z,77413.06
2019-01-15T11:49:29.706Z,77427.14
2019-01-15T11:52:00.961Z,77444.23
2019-01-15T11:54:32.227Z,77439.20
2019-01-15T11:57:05.501Z,77438.20
2019-01-15T11:59:36.837Z,77430.16
2019-01-15T12:02:22.273Z,77392.96
2019-01-15T12:05:09.956Z,77372.85
2019-01-15T12:07:58.674Z,77353.75
2019-01-15T12:10:47.507Z,77360.79
2019-01-15T12:13:36.633Z,77361.80
2019-01-15T12:16:22.334Z,77364.81
2019-01-15T12:19:30.857Z,77391.95
2019-01-15T12:22:22.518Z,77368.83
2019-01-15T12:25:11.353Z,77369.84
2019-01-15T12:27:59.293Z,77369.84
2019-01-15T12:30:55.494Z,77376.88
2019-01-15T12:33:45.516Z,77390.95
2019-01-15T12:36:43.408Z,77408.04
2019-01-15T12:39:32.267Z,77407.03
2019-01-15T12:42:25.244Z,77417.09
2019-01-15T12:45:19.725Z,77427.14
2019-01-15T12:48:18.747Z,77441.22
2019-01-15T12:51:17.707Z,77437.20
2019-01-15T12:54:16.421Z,77421.11
2019-01-15T12:57:05.430Z,77423.12
2019-01-15T13:00:07.665Z,77395.98
2019-01-15T13:02:56.523Z,77388.94
2019-01-15T13:05:45.363Z,77396.98
2019-01-15T13:08:38.192Z,77373.86
2019-01-15T13:11:31.216Z,77372.85
2019-01-15T13:14:29.968Z,77372.85
2019-01-15T13:17:18.970Z,77366.82
2019-01-15T13:20:06.006Z,77365.81
2019-01-15T13:22:52.339Z,77375.87
2019-01-15T13:25:55.167Z,77368.83
2019-01-15T13:28:44.081Z,77375.87
2019-01-15T13:31:37.087Z,77426.13
2019-01-15T13:34:39.481Z,77423.12
2019-01-15T13:37:27.922Z,77435.19
2019-01-15T13:40:21.250Z,77418.09
2019-01-15T13:43:16.361Z,77409.05
2019-01-15T13:46:09.388Z,77419.09
2019-01-15T13:48:59.373Z,77428.14
2019-01-15T13:51:52.403Z,77418.09
2019-01-15T13:54:51.326Z,77426.13
2019-01-15T13:57:41.348Z,77421.11
2019-01-15T14:00:33.175Z,77420.10
2019-01-15T14:03:26.099Z,77420.10
2019-01-15T14:06:17.350Z,77419.09
2019-01-15T14:09:16.694Z,77406.03
2019-01-15T14:12:05.671Z,77420.10
2019-01-15T14:14:50.812Z,77407.03
2019-01-15T14:17:42.516Z,77410.05
2019-01-15T14:20:31.470Z,77416.08
2019-01-15T14:23:21.481Z,77405.02
2019-01-15T14:26:23.697Z,77391.95
2019-01-15T14:29:20.632Z,77398.99
2019-01-15T14:32:17.724Z,77400.00
2019-01-15T14:35:06.514Z,77397.98
2019-01-15T14:38:01.305Z,77413.06
2019-01-15T14:40:51.304Z,77409.05
2019-01-15T14:43:40.230Z,77407.03
2019-01-15T14:46:30.951Z,77393.97
2019-01-15T14:49:20.939Z,77396.98
2019-01-15T14:52:02.203Z,77398.99
2019-01-15T14:54:50.940Z,77400.00
2019-01-15T14:57:41.381Z,77396.98
2019-01-15T15:00:40.900Z,77402.01
2019-01-15T15:03:29.760Z,77397.98
2019-01-15T15:06:13.790Z,77390.95
2019-01-15T15:09:09.831Z,77378.88
2019-01-15T15:11:56.476Z,77384.91
2019-01-15T15:14:52.744Z,77389.95
2019-01-15T15:17:51.383Z,77379.89
2019-01-15T15:20:50.851Z,77387.94
2019-01-15T15:23:34.771Z,77385.92
2019-01-15T15:26:19.516Z,77385.92
2019-01-15T15:29:09.232Z,77377.88
2019-01-15T15:32:14.360Z,77378.88
2019-01-15T15:35:13.479Z,77379.89
2019-01-15T15:38:03.469Z,77368.83
2019-01-15T15:40:53.404Z,77373.86
2019-01-15T15:43:49.174Z,77382.91
2019-01-15T15:46:41.949Z,77384.91
2019-01-15T15:49:50.020Z,77380.89
2019-01-15T15:53:03.886Z,77384.91
2019-01-15T15:56:07.376Z,77388.94
2019-01-15T15:59:12.410Z,77395.98
2019-01-15T16:02:01.126Z,77391.95
2019-01-15T16:04:54.270Z,77383.91
2019-01-15T16:07:42.792Z,77383.91
2019-01-15T16:10:38.982Z,77383.91
2019-01-15T16:13:42.657Z,77388.94
2019-01-15T16:16:31.578Z,77392.96
2019-01-15T16:19:20.160Z,77387.94
2019-01-15T16:22:09.122Z,77386.92
2019-01-15T16:24:57.805Z,77405.02
2019-01-15T16:27:56.779Z,77388.94
2019-01-15T16:31:04.966Z,77384.91
2019-01-15T16:33:57.836Z,77376.88
2019-01-15T16:36:50.766Z,77387.94
2019-01-15T16:39:43.861Z,77395.98
2019-01-15T16:42:33.938Z,77390.95
2019-01-15T16:45:28.100Z,77396.98
2019-01-15T16:48:27.251Z,77381.90
2019-01-15T16:51:11.389Z,77386.92
2019-01-15T16:54:19.790Z,77386.92
2019-01-15T16:57:18.668Z,77384.91
2019-01-15T17:00:20.474Z,77387.94
2019-01-15T17:03:19.447Z,77370.84
2019-01-15T17:06:09.429Z,77382.91
2019-01-15T17:08:58.289Z,77380.89
2019-01-15T17:11:54.376Z,77386.92
2019-01-15T17:14:44.405Z,77382.91
2019-01-15T17:17:28.247Z,77379.89
2019-01-15T17:20:24.557Z,77379.89
2019-01-15T17:23:13.450Z,77372.85
2019-01-15T17:26:09.874Z,77378.88
2019-01-15T17:28:59.263Z,77370.84
2019-01-15T17:31:52.954Z,77373.86
2019-01-15T17:34:48.372Z,77372.85
2019-01-15T17:37:53.523Z,77370.84
2019-01-15T17:40:42.357Z,77371.84
2019-01-15T17:43:33.639Z,77375.87
2019-01-15T17:46:23.274Z,77368.83
2019-01-15T17:49:16.442Z,77373.86
2019-01-15T17:52:05.229Z,77375.87
2019-01-15T17:54:57.580Z,77370.84
2019-01-15T17:57:41.171Z,77368.83
2019-01-15T18:00:39.507Z,77364.81
2019-01-15T18:03:34.020Z,77363.80
2019-01-15T18:06:36.246Z,77377.88
2019-01-15T18:09:26.352Z,77370.84
2019-01-15T18:12:18.777Z,77365.81
2019-01-15T18:15:27.261Z,77371.84
2019-01-15T18:18:15.793Z,77364.81
2019-01-15T18:21:04.625Z,77368.83
2019-01-15T18:23:57.668Z,77364.81
2019-01-15T18:26:47.693Z,77358.78
2019-01-15T18:29:37.709Z,77362.80
2019-01-15T18:32:35.104Z,77350.73
2019-01-15T18:35:37.780Z,77354.76
2019-01-15T18:38:31.102Z,77355.77
2019-01-15T18:41:30.567Z,77349.73
2019-01-15T18:44:23.544Z,77353.75
2019-01-15T18:47:17.151Z,77354.76
2019-01-15T18:50:10.151Z,77349.73
2019-01-15T18:53:11.038Z,77349.73
2019-01-15T18:56:07.164Z,77354.76
2019-01-15T18:59:18.557Z,77349.73
2019-01-15T19:02:11.750Z,77341.69
2019-01-15T19:05:19.936Z,77354.76
2019-01-15T19:08:15.905Z,77346.72
2019-01-15T19:11:04.517Z,77350.73
2019-01-15T19:13:52.721Z,77348.73
2019-01-15T19:16:40.318Z,77358.78
2019-01-15T19:19:42.617Z,77353.75
2019-01-15T19:22:33.546Z,77355.77
2019-01-15T19:25:28.374Z,77353.75
2019-01-15T19:28:24.699Z,77360.79
2019-01-15T19:31:23.998Z,77361.80
2019-01-15T19:34:09.408Z,77346.72
2019-01-15T19:36:58.331Z,77358.78
2019-01-15T19:40:00.714Z,77362.80
2019-01-15T19:43:03.086Z,77362.80
2019-01-15T19:46:02.364Z,77364.81
2019-01-15T19:49:04.646Z,77366.82
2019-01-15T19:52:00.805Z,77359.78
2019-01-15T19:54:56.743Z,77342.69
2019-01-15T19:57:57.862Z,77346.72
2019-01-15T20:00:45.238Z,77327.61
2019-01-15T20:03:51.597Z,77337.66
2019-01-15T20:06:50.870Z,77324.59
2019-01-15T20:09:55.194Z,77332.64
2019-01-15T20:12:43.827Z,77336.66
2019-01-15T20:15:36.579Z,77332.64
2019-01-15T20:18:26.808Z,77334.65
2019-01-15T20:21:16.753Z,77322.59
2019-01-15T20:24:18.707Z,77339.67
2019-01-15T20:27:07.312Z,77342.69
2019-01-15T20:29:56.369Z,77346.72
2019-01-15T20:32:49.726Z,77341.69
2019-01-15T20:35:40.358Z,77347.72
2019-01-15T20:38:38.645Z,77343.70
2019-01-15T20:41:27.322Z,77345.71
2019-01-15T20:44:16.067Z,77351.74
2019-01-15T20:47:06.293Z,77339.67
2019-01-15T20:49:52.657Z,77347.72
2019-01-15T20:52:50.304Z,77355.77
2019-01-15T20:55:45.441Z,77337.66
2019-01-15T20:58:28.764Z,77346.72
2019-01-15T21:01:17.763Z,77342.69
2019-01-15T21:04:13.967Z,77341.69
2019-01-15T21:07:10.228Z,77341.69
2019-01-15T21:09:59.455Z,77347.72
2019-01-15T21:12:48.381Z,77337.66
2019-01-15T21:15:37.664Z,77334.65
2019-01-15T21:18:26.724Z,77345.71
2019-01-15T21:21:16.735Z,77346.72
2019-01-15T21:24:21.922Z,77341.69
2019-01-15T21:27:14.998Z,77362.80
2019-01-15T21:30:08.132Z,77345.71
2019-01-15T21:33:07.052Z,77356.77
2019-01-15T21:35:55.848Z,77353.75
2019-01-15T21:38:44.699Z,77351.74
2019-01-15T21:41:33.249Z,77339.67
2019-01-15T21:44:22.235Z,77342.69
2019-01-15T21:47:12.242Z,77343.70
2019-01-15T21:50:08.609Z,77338.67
2019-01-15T21:53:10.929Z,77330.63
2019-01-15T21:55:59.591Z,77329.63
2019-01-15T21:58:40.048Z,77321.58
2019-01-15T22:01:45.425Z,77320.58
2019-01-15T22:04:38.161Z,77321.58
2019-01-15T22:07:40.291Z,77322.59
2019-01-15T22:10:35.433Z,77312.53
2019-01-15T22:13:28.353Z,77323.59
2019-01-15T22:16:08.669Z,77322.59
2019-01-15T22:18:55.838Z,77318.56
2019-01-15T22:21:45.831Z,77315.55
2019-01-15T22:24:44.829Z,77325.61
2019-01-15T22:27:27.718Z,77310.52
2019-01-15T22:30:16.557Z,77311.53
2019-01-15T22:33:15.416Z,77307.51
2019-01-15T22:36:05.556Z,77303.48
2019-01-15T22:39:01.344Z,77300.47
2019-01-15T22:41:42.181Z,77308.52
2019-01-15T22:44:32.163Z,77291.42
2019-01-15T22:47:31.309Z,77287.41
2019-01-15T22:50:27.194Z,77280.37
2019-01-15T22:53:16.155Z,77287.41
2019-01-15T22:56:12.560Z,77288.41
2019-01-15T22:59:02.565Z,77292.42
2019-01-15T23:01:46.006Z,77298.45
2019-01-15T23:04:39.147Z,77295.44
2019-01-15T23:07:32.273Z,77292.42
2019-01-15T23:10:34.599Z,77292.42
2019-01-15T23:13:24.632Z,77276.34
2019-01-15T23:16:04.505Z,77272.32
2019-01-15T23:18:47.096Z,77271.31
2019-01-15T23:21:49.299Z,77276.34
2019-01-15T23:24:36.662Z,77263.27
2019-01-15T23:27:25.800Z,77262.27
2019-01-15T23:30:34.164Z,77264.28
2019-01-15T23:33:23.135Z,77266.29
2019-01-15T23:36:31.726Z,77250.20
2019-01-15T23:39:25.624Z,77268.30
2019-01-15T23:42:28.846Z,77260.26
2019-01-15T23:45:18.303Z,77265.28
2019-01-15T23:48:09.882Z,77257.24
2019-01-15T23:50:55.323Z,77259.25
2019-01-15T23:54:03.517Z,77241.16
2019-01-15T23:56:56.484Z,77240.16
2019-01-15T23:59:50.708Z,77235.13
